Portada
METAR-TAF:

METAR-TAF

Aeroports :

Ahwaz, Iran

latitud: 31-20N, longitud: 048-40E, altitud: 20 m

Observació

L'informe es va fer fa 20 minuts, a les 15:00 UTC
Vent 8 kt del Oest/Nord-Oest
Temperatura 45°C
Humitat 15%
Pressió 994 hPa
Visibilitat 10 km o més
sense núvols per sota de 1500 mi sense presència de cumulonimbus.

METAR: OIAW 211500Z 30008KT CAVOK 45/12 Q0994 NOSIG

Hora: 19:50 (15:20 UTC)

Pronòstic

L'informe es va fer fa 3 hores i 50 minuts, a les 11:30 UTC
Pronòstic vàlid del 21 a les 12 UTC al 22 a les 18 UTC
Vent 10 kt del Oest/Nord-Oest
Visibilitat: 7000 m
Temporalment
l' 21 a les 12 UTC al 21 a les 15 UTC
Vent 15 kt del Oest amb ràfegues de 25 kt
Probabilitat 40%
l' 21 a les 12 UTC al 21 a les 15 UTC
Visibilitat: 5000 m
Temporalment
l' 22 a les 12 UTC al 22 a les 18 UTC
Vent 25 kt del Oest/Nord-Oest amb ràfegues de 28 kt
Visibilitat: 5000 m

TAF: OIAW 211130Z 2112/2218 29010KT 7000 NSC TEMPO 2112/2115 27015G25KT PROB40 2112/2115 5000 SA/DU TEMPO 2212/2218 29025G28KT 5000 SA/DU

Observacions i pronòstics meteorològics de més de 4000 aeroports (METAR i TAF).

Les estacions disponibles són els punts grocs i vermells al mapa.

Posi el ratolí al punt desitjat per veure el nom de l'estació.

Feu clic per veure les observacions i els pronòstics meteorològics.

Per canviar el mapa: feu clic els botons verds amb una creu de color negre per apropar; al botó verd amb un guió per allunyar la imatge; o en les fletxes verdes per a mapes adjacents.


METAR-TAF: